sensor_id;sensor_type;location;lat;lon;timestamp;P1;durP1;ratioP1;P2;durP2;ratioP2
46729;SDS011;32476;50.002;11.854;2023-11-19T00:00:06;11.43;;;5.57;;
46729;SDS011;32476;50.002;11.854;2023-11-19T00:02:38;5.93;;;3.10;;
46729;SDS011;32476;50.002;11.854;2023-11-19T00:05:04;3.50;;;2.93;;
46729;SDS011;32476;50.002;11.854;2023-11-19T00:07:37;6.53;;;3.80;;
46729;SDS011;32476;50.002;11.854;2023-11-19T00:10:11;7.10;;;4.07;;
46729;SDS011;32476;50.002;11.854;2023-11-19T00:12:39;6.53;;;4.00;;
46729;SDS011;32476;50.002;11.854;2023-11-19T00:15:14;6.20;;;3.40;;
46729;SDS011;32476;50.002;11.854;2023-11-19T00:17:41;4.47;;;3.10;;
46729;SDS011;32476;50.002;11.854;2023-11-19T00:20:16;6.17;;;3.63;;
46729;SDS011;32476;50.002;11.854;2023-11-19T00:22:45;6.63;;;3.93;;
46729;SDS011;32476;50.002;11.854;2023-11-19T00:25:16;5.63;;;2.73;;
46729;SDS011;32476;50.002;11.854;2023-11-19T00:27:45;4.77;;;3.07;;
46729;SDS011;32476;50.002;11.854;2023-11-19T00:30:11;9.73;;;4.43;;
46729;SDS011;32476;50.002;11.854;2023-11-19T00:32:37;58.97;;;6.83;;
46729;SDS011;32476;50.002;11.854;2023-11-19T00:35:06;23.87;;;5.67;;
46729;SDS011;32476;50.002;11.854;2023-11-19T00:37:32;6.30;;;4.27;;
46729;SDS011;32476;50.002;11.854;2023-11-19T00:39:58;5.03;;;3.50;;
46729;SDS011;32476;50.002;11.854;2023-11-19T00:42:26;58.27;;;6.83;;
46729;SDS011;32476;50.002;11.854;2023-11-19T00:44:52;8.77;;;4.77;;
46729;SDS011;32476;50.002;11.854;2023-11-19T00:47:18;17.67;;;5.17;;
46729;SDS011;32476;50.002;11.854;2023-11-19T00:49:47;114.27;;;11.13;;
46729;SDS011;32476;50.002;11.854;2023-11-19T00:52:16;31.93;;;6.07;;
46729;SDS011;32476;50.002;11.854;2023-11-19T00:54:42;57.17;;;6.73;;
46729;SDS011;32476;50.002;11.854;2023-11-19T00:57:10;269.97;;;19.97;;
46729;SDS011;32476;50.002;11.854;2023-11-19T00:59:35;14.40;;;4.53;;
46729;SDS011;32476;50.002;11.854;2023-11-19T01:02:01;110.63;;;11.07;;
46729;SDS011;32476;50.002;11.854;2023-11-19T01:04:33;168.87;;;14.73;;
46729;SDS011;32476;50.002;11.854;2023-11-19T01:07:01;95.77;;;9.00;;
46729;SDS011;32476;50.002;11.854;2023-11-19T01:09:32;16.70;;;4.93;;
46729;SDS011;32476;50.002;11.854;2023-11-19T01:12:01;6.30;;;4.30;;
46729;SDS011;32476;50.002;11.854;2023-11-19T01:14:28;9.40;;;3.97;;
46729;SDS011;32476;50.002;11.854;2023-11-19T01:16:55;93.73;;;9.47;;
46729;SDS011;32476;50.002;11.854;2023-11-19T01:19:22;16.50;;;4.07;;
46729;SDS011;32476;50.002;11.854;2023-11-19T01:21:51;7.03;;;4.07;;
46729;SDS011;32476;50.002;11.854;2023-11-19T01:24:18;3.53;;;2.93;;
46729;SDS011;32476;50.002;11.854;2023-11-19T01:26:44;4.27;;;2.90;;
46729;SDS011;32476;50.002;11.854;2023-11-19T01:29:13;3.67;;;3.10;;
46729;SDS011;32476;50.002;11.854;2023-11-19T01:31:42;4.47;;;2.63;;
46729;SDS011;32476;50.002;11.854;2023-11-19T01:34:08;4.90;;;2.90;;
46729;SDS011;32476;50.002;11.854;2023-11-19T01:36:35;4.60;;;3.00;;
46729;SDS011;32476;50.002;11.854;2023-11-19T01:39:02;4.00;;;2.60;;
46729;SDS011;32476;50.002;11.854;2023-11-19T01:41:33;3.57;;;2.20;;
46729;SDS011;32476;50.002;11.854;2023-11-19T01:44:03;3.77;;;2.10;;
46729;SDS011;32476;50.002;11.854;2023-11-19T01:46:29;3.57;;;2.50;;
46729;SDS011;32476;50.002;11.854;2023-11-19T01:48:57;3.73;;;3.00;;
46729;SDS011;32476;50.002;11.854;2023-11-19T01:51:26;3.47;;;2.67;;
46729;SDS011;32476;50.002;11.854;2023-11-19T01:53:53;3.20;;;2.50;;
46729;SDS011;32476;50.002;11.854;2023-11-19T01:56:20;2.50;;;2.30;;
46729;SDS011;32476;50.002;11.854;2023-11-19T01:58:48;2.87;;;2.10;;
46729;SDS011;32476;50.002;11.854;2023-11-19T02:01:15;2.50;;;2.00;;
46729;SDS011;32476;50.002;11.854;2023-11-19T02:03:41;2.47;;;2.17;;
46729;SDS011;32476;50.002;11.854;2023-11-19T02:06:09;2.33;;;2.13;;
46729;SDS011;32476;50.002;11.854;2023-11-19T02:08:35;1.70;;;1.60;;
46729;SDS011;32476;50.002;11.854;2023-11-19T02:11:02;1.77;;;1.67;;
46729;SDS011;32476;50.002;11.854;2023-11-19T02:13:29;2.00;;;1.80;;
46729;SDS011;32476;50.002;11.854;2023-11-19T02:15:55;1.97;;;1.53;;
46729;SDS011;32476;50.002;11.854;2023-11-19T02:18:22;1.57;;;1.47;;
46729;SDS011;32476;50.002;11.854;2023-11-19T02:20:50;1.63;;;1.47;;
46729;SDS011;32476;50.002;11.854;2023-11-19T02:23:17;1.20;;;1.07;;
46729;SDS011;32476;50.002;11.854;2023-11-19T02:25:46;1.20;;;1.10;;
46729;SDS011;32476;50.002;11.854;2023-11-19T02:28:21;1.07;;;0.97;;
46729;SDS011;32476;50.002;11.854;2023-11-19T02:30:47;1.57;;;1.10;;
46729;SDS011;32476;50.002;11.854;2023-11-19T02:33:13;0.80;;;0.80;;
46729;SDS011;32476;50.002;11.854;2023-11-19T02:35:41;1.10;;;1.00;;
46729;SDS011;32476;50.002;11.854;2023-11-19T02:38:07;1.00;;;0.90;;
46729;SDS011;32476;50.002;11.854;2023-11-19T02:40:35;1.23;;;1.10;;
46729;SDS011;32476;50.002;11.854;2023-11-19T02:43:02;0.90;;;0.90;;
46729;SDS011;32476;50.002;11.854;2023-11-19T02:45:30;0.70;;;0.70;;
46729;SDS011;32476;50.002;11.854;2023-11-19T02:47:56;0.60;;;0.60;;
46729;SDS011;32476;50.002;11.854;2023-11-19T02:50:24;0.90;;;0.80;;
46729;SDS011;32476;50.002;11.854;2023-11-19T02:52:51;0.90;;;0.80;;
46729;SDS011;32476;50.002;11.854;2023-11-19T02:55:19;0.77;;;0.70;;
46729;SDS011;32476;50.002;11.854;2023-11-19T02:57:46;1.10;;;0.80;;
46729;SDS011;32476;50.002;11.854;2023-11-19T03:00:14;1.00;;;0.63;;
46729;SDS011;32476;50.002;11.854;2023-11-19T03:02:41;0.60;;;0.60;;
46729;SDS011;32476;50.002;11.854;2023-11-19T03:05:20;0.90;;;0.70;;
46729;SDS011;32476;50.002;11.854;2023-11-19T03:07:46;0.63;;;0.60;;
46729;SDS011;32476;50.002;11.854;2023-11-19T03:10:12;1.03;;;0.50;;
46729;SDS011;32476;50.002;11.854;2023-11-19T03:12:42;0.50;;;0.50;;
46729;SDS011;32476;50.002;11.854;2023-11-19T03:15:09;0.50;;;0.50;;
46729;SDS011;32476;50.002;11.854;2023-11-19T03:17:41;0.40;;;0.40;;
46729;SDS011;32476;50.002;11.854;2023-11-19T03:20:11;0.30;;;0.30;;
46729;SDS011;32476;50.002;11.854;2023-11-19T03:22:42;0.50;;;0.50;;
46729;SDS011;32476;50.002;11.854;2023-11-19T03:25:09;0.50;;;0.50;;
46729;SDS011;32476;50.002;11.854;2023-11-19T03:27:37;0.70;;;0.50;;
46729;SDS011;32476;50.002;11.854;2023-11-19T03:30:09;0.60;;;0.60;;
46729;SDS011;32476;50.002;11.854;2023-11-19T03:32:37;0.40;;;0.40;;
46729;SDS011;32476;50.002;11.854;2023-11-19T03:35:04;0.40;;;0.40;;
46729;SDS011;32476;50.002;11.854;2023-11-19T03:37:34;0.40;;;0.40;;
46729;SDS011;32476;50.002;11.854;2023-11-19T03:40:03;0.40;;;0.40;;
46729;SDS011;32476;50.002;11.854;2023-11-19T03:42:29;0.40;;;0.40;;
46729;SDS011;32476;50.002;11.854;2023-11-19T03:44:58;0.40;;;0.40;;
46729;SDS011;32476;50.002;11.854;2023-11-19T03:47:25;0.40;;;0.40;;
46729;SDS011;32476;50.002;11.854;2023-11-19T03:49:51;0.37;;;0.37;;
46729;SDS011;32476;50.002;11.854;2023-11-19T03:52:18;0.40;;;0.40;;
46729;SDS011;32476;50.002;11.854;2023-11-19T03:54:45;0.40;;;0.40;;
46729;SDS011;32476;50.002;11.854;2023-11-19T03:57:12;0.40;;;0.40;;
46729;SDS011;32476;50.002;11.854;2023-11-19T03:59:38;0.40;;;0.40;;
46729;SDS011;32476;50.002;11.854;2023-11-19T04:02:06;0.40;;;0.40;;
46729;SDS011;32476;50.002;11.854;2023-11-19T04:04:32;0.40;;;0.40;;
46729;SDS011;32476;50.002;11.854;2023-11-19T04:06:58;0.50;;;0.40;;
46729;SDS011;32476;50.002;11.854;2023-11-19T04:09:27;4.90;;;0.80;;
46729;SDS011;32476;50.002;11.854;2023-11-19T04:11:53;6.47;;;0.80;;
46729;SDS011;32476;50.002;11.854;2023-11-19T04:14:19;2.60;;;0.90;;
46729;SDS011;32476;50.002;11.854;2023-11-19T04:16:46;7.20;;;0.87;;
46729;SDS011;32476;50.002;11.854;2023-11-19T04:19:12;5.33;;;0.83;;
46729;SDS011;32476;50.002;11.854;2023-11-19T04:21:41;23.67;;;1.73;;
46729;SDS011;32476;50.002;11.854;2023-11-19T04:24:09;38.97;;;2.60;;
46729;SDS011;32476;50.002;11.854;2023-11-19T04:26:42;69.73;;;4.80;;
46729;SDS011;32476;50.002;11.854;2023-11-19T04:29:10;128.40;;;6.50;;
46729;SDS011;32476;50.002;11.854;2023-11-19T04:31:37;96.00;;;5.83;;
46729;SDS011;32476;50.002;11.854;2023-11-19T04:34:05;190.97;;;10.17;;
46729;SDS011;32476;50.002;11.854;2023-11-19T04:36:33;261.73;;;15.13;;
46729;SDS011;32476;50.002;11.854;2023-11-19T04:38:59;101.93;;;6.83;;
46729;SDS011;32476;50.002;11.854;2023-11-19T04:41:26;266.63;;;13.47;;
46729;SDS011;32476;50.002;11.854;2023-11-19T04:43:54;204.80;;;10.70;;
46729;SDS011;32476;50.002;11.854;2023-11-19T04:46:20;186.13;;;11.27;;
46729;SDS011;32476;50.002;11.854;2023-11-19T04:48:46;248.87;;;13.30;;
46729;SDS011;32476;50.002;11.854;2023-11-19T04:51:14;226.60;;;12.97;;
46729;SDS011;32476;50.002;11.854;2023-11-19T04:53:40;356.47;;;18.97;;
46729;SDS011;32476;50.002;11.854;2023-11-19T04:56:09;359.27;;;20.73;;
46729;SDS011;32476;50.002;11.854;2023-11-19T04:58:37;392.67;;;21.73;;
46729;SDS011;32476;50.002;11.854;2023-11-19T05:01:03;313.40;;;18.97;;
46729;SDS011;32476;50.002;11.854;2023-11-19T05:03:30;309.43;;;16.53;;
46729;SDS011;32476;50.002;11.854;2023-11-19T05:05:58;367.63;;;20.10;;
46729;SDS011;32476;50.002;11.854;2023-11-19T05:08:24;112.07;;;8.07;;
46729;SDS011;32476;50.002;11.854;2023-11-19T05:10:50;38.17;;;3.63;;
46729;SDS011;32476;50.002;11.854;2023-11-19T05:13:17;13.50;;;1.60;;
46729;SDS011;32476;50.002;11.854;2023-11-19T05:15:43;1.50;;;1.27;;
46729;SDS011;32476;50.002;11.854;2023-11-19T05:18:09;1.80;;;1.20;;
46729;SDS011;32476;50.002;11.854;2023-11-19T05:20:36;1.50;;;1.23;;
46729;SDS011;32476;50.002;11.854;2023-11-19T05:23:02;1.20;;;1.10;;
46729;SDS011;32476;50.002;11.854;2023-11-19T05:25:28;1.13;;;1.03;;
46729;SDS011;32476;50.002;11.854;2023-11-19T05:27:55;0.70;;;0.70;;
46729;SDS011;32476;50.002;11.854;2023-11-19T05:30:21;0.73;;;0.73;;
46729;SDS011;32476;50.002;11.854;2023-11-19T05:32:48;1.23;;;1.00;;
46729;SDS011;32476;50.002;11.854;2023-11-19T05:35:15;0.50;;;0.50;;
46729;SDS011;32476;50.002;11.854;2023-11-19T05:37:41;0.60;;;0.60;;
46729;SDS011;32476;50.002;11.854;2023-11-19T05:40:07;0.40;;;0.40;;
46729;SDS011;32476;50.002;11.854;2023-11-19T05:42:41;0.60;;;0.60;;
46729;SDS011;32476;50.002;11.854;2023-11-19T05:45:07;0.60;;;0.60;;
46729;SDS011;32476;50.002;11.854;2023-11-19T05:47:35;0.40;;;0.40;;
46729;SDS011;32476;50.002;11.854;2023-11-19T05:50:02;0.47;;;0.47;;
46729;SDS011;32476;50.002;11.854;2023-11-19T05:52:31;0.50;;;0.50;;
46729;SDS011;32476;50.002;11.854;2023-11-19T05:55:01;0.80;;;0.80;;
46729;SDS011;32476;50.002;11.854;2023-11-19T05:57:32;2.00;;;0.70;;
46729;SDS011;32476;50.002;11.854;2023-11-19T06:00:00;0.50;;;0.50;;
46729;SDS011;32476;50.002;11.854;2023-11-19T06:02:25;0.73;;;0.60;;
46729;SDS011;32476;50.002;11.854;2023-11-19T06:04:53;0.57;;;0.57;;
46729;SDS011;32476;50.002;11.854;2023-11-19T06:07:27;0.60;;;0.60;;
46729;SDS011;32476;50.002;11.854;2023-11-19T06:09:54;1.00;;;0.90;;
46729;SDS011;32476;50.002;11.854;2023-11-19T06:12:20;1.00;;;0.70;;
46729;SDS011;32476;50.002;11.854;2023-11-19T06:14:46;36.63;;;3.20;;
46729;SDS011;32476;50.002;11.854;2023-11-19T06:17:13;26.80;;;2.77;;
46729;SDS011;32476;50.002;11.854;2023-11-19T06:19:39;0.80;;;0.80;;
46729;SDS011;32476;50.002;11.854;2023-11-19T06:22:05;2.23;;;1.87;;
46729;SDS011;32476;50.002;11.854;2023-11-19T06:24:33;6.57;;;4.33;;
46729;SDS011;32476;50.002;11.854;2023-11-19T06:26:59;8.43;;;5.10;;
46729;SDS011;32476;50.002;11.854;2023-11-19T06:29:24;16.07;;;9.10;;
46729;SDS011;32476;50.002;11.854;2023-11-19T06:31:52;11.80;;;7.23;;
46729;SDS011;32476;50.002;11.854;2023-11-19T06:34:18;48.27;;;26.00;;
46729;SDS011;32476;50.002;11.854;2023-11-19T06:36:44;28.27;;;15.33;;
46729;SDS011;32476;50.002;11.854;2023-11-19T06:39:11;15.00;;;8.97;;
46729;SDS011;32476;50.002;11.854;2023-11-19T06:41:37;13.67;;;7.53;;
46729;SDS011;32476;50.002;11.854;2023-11-19T06:44:04;11.13;;;6.17;;
46729;SDS011;32476;50.002;11.854;2023-11-19T06:46:32;7.57;;;4.20;;
46729;SDS011;32476;50.002;11.854;2023-11-19T06:48:58;1.77;;;1.23;;
46729;SDS011;32476;50.002;11.854;2023-11-19T06:51:23;1.83;;;1.33;;
46729;SDS011;32476;50.002;11.854;2023-11-19T06:53:51;1.10;;;1.00;;
46729;SDS011;32476;50.002;11.854;2023-11-19T06:56:23;2.43;;;1.30;;
46729;SDS011;32476;50.002;11.854;2023-11-19T06:58:51;3.63;;;1.20;;
46729;SDS011;32476;50.002;11.854;2023-11-19T07:01:17;1.40;;;1.10;;
46729;SDS011;32476;50.002;11.854;2023-11-19T07:03:46;2.73;;;1.73;;
46729;SDS011;32476;50.002;11.854;2023-11-19T07:06:14;17.73;;;2.60;;
46729;SDS011;32476;50.002;11.854;2023-11-19T07:08:43;8.40;;;3.27;;
46729;SDS011;32476;50.002;11.854;2023-11-19T07:11:14;12.97;;;4.63;;
46729;SDS011;32476;50.002;11.854;2023-11-19T07:13:42;92.07;;;6.20;;
46729;SDS011;32476;50.002;11.854;2023-11-19T07:16:08;70.30;;;5.30;;
46729;SDS011;32476;50.002;11.854;2023-11-19T07:18:36;212.73;;;12.00;;
46729;SDS011;32476;50.002;11.854;2023-11-19T07:21:04;116.40;;;7.93;;
46729;SDS011;32476;50.002;11.854;2023-11-19T07:23:30;221.50;;;13.20;;
46729;SDS011;32476;50.002;11.854;2023-11-19T07:25:57;353.43;;;18.53;;
46729;SDS011;32476;50.002;11.854;2023-11-19T07:28:23;352.97;;;18.47;;
46729;SDS011;32476;50.002;11.854;2023-11-19T07:30:50;356.57;;;18.17;;
46729;SDS011;32476;50.002;11.854;2023-11-19T07:33:18;400.73;;;20.33;;
46729;SDS011;32476;50.002;11.854;2023-11-19T07:35:43;476.80;;;26.90;;
46729;SDS011;32476;50.002;11.854;2023-11-19T07:38:09;404.90;;;21.00;;
46729;SDS011;32476;50.002;11.854;2023-11-19T07:40:37;502.47;;;23.30;;
46729;SDS011;32476;50.002;11.854;2023-11-19T07:43:02;345.13;;;18.20;;
46729;SDS011;32476;50.002;11.854;2023-11-19T07:45:28;161.10;;;10.20;;
46729;SDS011;32476;50.002;11.854;2023-11-19T07:47:55;36.43;;;3.00;;
46729;SDS011;32476;50.002;11.854;2023-11-19T07:50:21;8.70;;;1.80;;
46729;SDS011;32476;50.002;11.854;2023-11-19T07:52:47;2.23;;;1.67;;
46729;SDS011;32476;50.002;11.854;2023-11-19T07:55:14;15.03;;;4.23;;
46729;SDS011;32476;50.002;11.854;2023-11-19T07:57:42;6.47;;;2.97;;
46729;SDS011;32476;50.002;11.854;2023-11-19T08:00:08;3.13;;;1.20;;
46729;SDS011;32476;50.002;11.854;2023-11-19T08:02:39;5.60;;;3.43;;
46729;SDS011;32476;50.002;11.854;2023-11-19T08:05:05;1.23;;;1.00;;
46729;SDS011;32476;50.002;11.854;2023-11-19T08:07:31;1.53;;;1.10;;
46729;SDS011;32476;50.002;11.854;2023-11-19T08:09:58;1.00;;;0.90;;
46729;SDS011;32476;50.002;11.854;2023-11-19T08:12:25;1.20;;;1.10;;
46729;SDS011;32476;50.002;11.854;2023-11-19T08:14:51;1.07;;;0.87;;
46729;SDS011;32476;50.002;11.854;2023-11-19T08:17:18;77.90;;;5.17;;
46729;SDS011;32476;50.002;11.854;2023-11-19T08:19:44;86.90;;;4.77;;
46729;SDS011;32476;50.002;11.854;2023-11-19T08:22:10;78.03;;;4.67;;
46729;SDS011;32476;50.002;11.854;2023-11-19T08:24:37;109.00;;;6.73;;
46729;SDS011;32476;50.002;11.854;2023-11-19T08:27:03;77.47;;;6.77;;
46729;SDS011;32476;50.002;11.854;2023-11-19T08:29:30;16.03;;;2.03;;
46729;SDS011;32476;50.002;11.854;2023-11-19T08:31:57;61.67;;;5.07;;
46729;SDS011;32476;50.002;11.854;2023-11-19T08:34:25;4.17;;;2.00;;
46729;SDS011;32476;50.002;11.854;2023-11-19T08:36:50;8.73;;;3.03;;
46729;SDS011;32476;50.002;11.854;2023-11-19T08:39:20;6.00;;;3.33;;
46729;SDS011;32476;50.002;11.854;2023-11-19T08:41:49;9.27;;;2.50;;
46729;SDS011;32476;50.002;11.854;2023-11-19T08:44:15;20.03;;;3.03;;
46729;SDS011;32476;50.002;11.854;2023-11-19T08:46:47;32.40;;;3.87;;
46729;SDS011;32476;50.002;11.854;2023-11-19T08:49:16;28.70;;;3.63;;
46729;SDS011;32476;50.002;11.854;2023-11-19T08:51:45;22.77;;;3.53;;
46729;SDS011;32476;50.002;11.854;2023-11-19T08:54:10;19.07;;;3.37;;
46729;SDS011;32476;50.002;11.854;2023-11-19T08:56:38;4.63;;;2.43;;
46729;SDS011;32476;50.002;11.854;2023-11-19T08:59:08;2.40;;;2.03;;
46729;SDS011;32476;50.002;11.854;2023-11-19T09:01:34;6.90;;;1.90;;
46729;SDS011;32476;50.002;11.854;2023-11-19T09:03:59;3.73;;;2.40;;
46729;SDS011;32476;50.002;11.854;2023-11-19T09:06:27;4.07;;;2.33;;
46729;SDS011;32476;50.002;11.854;2023-11-19T09:08:53;5.73;;;2.47;;
46729;SDS011;32476;50.002;11.854;2023-11-19T09:11:19;2.97;;;2.63;;
46729;SDS011;32476;50.002;11.854;2023-11-19T09:13:46;2.53;;;2.27;;
46729;SDS011;32476;50.002;11.854;2023-11-19T09:16:12;3.70;;;2.13;;
46729;SDS011;32476;50.002;11.854;2023-11-19T09:18:38;3.67;;;2.00;;
46729;SDS011;32476;50.002;11.854;2023-11-19T09:21:05;4.97;;;2.23;;
46729;SDS011;32476;50.002;11.854;2023-11-19T09:23:31;3.43;;;2.33;;
46729;SDS011;32476;50.002;11.854;2023-11-19T09:26:01;4.27;;;1.90;;
46729;SDS011;32476;50.002;11.854;2023-11-19T09:28:29;3.10;;;2.20;;
46729;SDS011;32476;50.002;11.854;2023-11-19T09:30:55;4.10;;;2.20;;
46729;SDS011;32476;50.002;11.854;2023-11-19T09:33:20;2.80;;;1.70;;
46729;SDS011;32476;50.002;11.854;2023-11-19T09:35:48;2.83;;;2.00;;
46729;SDS011;32476;50.002;11.854;2023-11-19T09:38:15;3.43;;;2.03;;
46729;SDS011;32476;50.002;11.854;2023-11-19T09:40:41;4.43;;;2.00;;
46729;SDS011;32476;50.002;11.854;2023-11-19T09:43:09;5.10;;;2.60;;
46729;SDS011;32476;50.002;11.854;2023-11-19T09:45:46;3.07;;;2.13;;
46729;SDS011;32476;50.002;11.854;2023-11-19T09:48:19;4.27;;;2.00;;
46729;SDS011;32476;50.002;11.854;2023-11-19T09:50:46;4.43;;;1.90;;
46729;SDS011;32476;50.002;11.854;2023-11-19T09:53:13;2.67;;;1.80;;
46729;SDS011;32476;50.002;11.854;2023-11-19T09:55:44;3.63;;;1.73;;
46729;SDS011;32476;50.002;11.854;2023-11-19T09:58:10;2.57;;;1.80;;
46729;SDS011;32476;50.002;11.854;2023-11-19T10:00:39;5.30;;;2.00;;
46729;SDS011;32476;50.002;11.854;2023-11-19T10:03:07;3.13;;;2.00;;
46729;SDS011;32476;50.002;11.854;2023-11-19T10:05:36;3.13;;;1.77;;
46729;SDS011;32476;50.002;11.854;2023-11-19T10:08:04;2.57;;;1.60;;
46729;SDS011;32476;50.002;11.854;2023-11-19T10:10:32;4.40;;;1.70;;
46729;SDS011;32476;50.002;11.854;2023-11-19T10:12:58;3.73;;;1.70;;
46729;SDS011;32476;50.002;11.854;2023-11-19T10:15:25;3.90;;;1.50;;
46729;SDS011;32476;50.002;11.854;2023-11-19T10:17:56;2.07;;;1.53;;
46729;SDS011;32476;50.002;11.854;2023-11-19T10:20:23;5.43;;;1.57;;
46729;SDS011;32476;50.002;11.854;2023-11-19T10:22:52;3.13;;;1.57;;
46729;SDS011;32476;50.002;11.854;2023-11-19T10:25:22;6.50;;;1.60;;
46729;SDS011;32476;50.002;11.854;2023-11-19T10:27:52;4.67;;;1.80;;
46729;SDS011;32476;50.002;11.854;2023-11-19T10:30:21;2.97;;;1.80;;
46729;SDS011;32476;50.002;11.854;2023-11-19T10:33:07;3.53;;;1.53;;
46729;SDS011;32476;50.002;11.854;2023-11-19T10:35:50;2.20;;;1.60;;
46729;SDS011;32476;50.002;11.854;2023-11-19T10:38:19;2.90;;;1.37;;
46729;SDS011;32476;50.002;11.854;2023-11-19T10:40:51;5.90;;;1.37;;
46729;SDS011;32476;50.002;11.854;2023-11-19T10:43:18;5.17;;;1.50;;
46729;SDS011;32476;50.002;11.854;2023-11-19T10:45:44;5.93;;;1.50;;
46729;SDS011;32476;50.002;11.854;2023-11-19T10:48:12;5.97;;;1.67;;
46729;SDS011;32476;50.002;11.854;2023-11-19T10:50:39;4.77;;;1.50;;
46729;SDS011;32476;50.002;11.854;2023-11-19T10:53:06;5.67;;;1.50;;
46729;SDS011;32476;50.002;11.854;2023-11-19T10:55:35;5.13;;;1.73;;
46729;SDS011;32476;50.002;11.854;2023-11-19T10:58:06;3.40;;;2.10;;
46729;SDS011;32476;50.002;11.854;2023-11-19T11:00:43;5.57;;;2.27;;
46729;SDS011;32476;50.002;11.854;2023-11-19T11:03:17;6.13;;;1.50;;
46729;SDS011;32476;50.002;11.854;2023-11-19T11:05:46;4.30;;;1.50;;
46729;SDS011;32476;50.002;11.854;2023-11-19T11:08:14;5.47;;;1.83;;
46729;SDS011;32476;50.002;11.854;2023-11-19T11:10:45;7.50;;;2.03;;
46729;SDS011;32476;50.002;11.854;2023-11-19T11:13:19;5.30;;;1.80;;
46729;SDS011;32476;50.002;11.854;2023-11-19T11:15:48;4.67;;;1.97;;
46729;SDS011;32476;50.002;11.854;2023-11-19T11:18:14;4.87;;;2.07;;
46729;SDS011;32476;50.002;11.854;2023-11-19T11:20:42;3.93;;;2.07;;
46729;SDS011;32476;50.002;11.854;2023-11-19T11:23:29;6.93;;;1.87;;
46729;SDS011;32476;50.002;11.854;2023-11-19T11:29:29;7.37;;;2.03;;
46729;SDS011;32476;50.002;11.854;2023-11-19T11:37:50;6.23;;;1.90;;
46729;SDS011;32476;50.002;11.854;2023-11-19T11:40:25;2.97;;;1.30;;
46729;SDS011;32476;50.002;11.854;2023-11-19T11:42:53;5.47;;;2.00;;
46729;SDS011;32476;50.002;11.854;2023-11-19T11:45:19;5.27;;;1.70;;
46729;SDS011;32476;50.002;11.854;2023-11-19T11:48:06;7.20;;;1.90;;
46729;SDS011;32476;50.002;11.854;2023-11-19T11:50:35;6.47;;;1.83;;
46729;SDS011;32476;50.002;11.854;2023-11-19T11:53:15;8.37;;;1.83;;
46729;SDS011;32476;50.002;11.854;2023-11-19T11:58:18;6.80;;;1.90;;
46729;SDS011;32476;50.002;11.854;2023-11-19T12:00:46;9.50;;;2.20;;
46729;SDS011;32476;50.002;11.854;2023-11-19T12:03:15;4.97;;;2.00;;
46729;SDS011;32476;50.002;11.854;2023-11-19T12:05:45;8.47;;;2.90;;
46729;SDS011;32476;50.002;11.854;2023-11-19T12:08:11;5.73;;;1.90;;
46729;SDS011;32476;50.002;11.854;2023-11-19T12:10:49;8.97;;;2.20;;
46729;SDS011;32476;50.002;11.854;2023-11-19T12:13:17;5.33;;;1.83;;
46729;SDS011;32476;50.002;11.854;2023-11-19T12:18:23;3.97;;;1.90;;
46729;SDS011;32476;50.002;11.854;2023-11-19T12:20:51;2.90;;;1.80;;
46729;SDS011;32476;50.002;11.854;2023-11-19T12:23:17;7.93;;;2.53;;
46729;SDS011;32476;50.002;11.854;2023-11-19T12:25:43;5.63;;;2.23;;
46729;SDS011;32476;50.002;11.854;2023-11-19T12:28:12;6.77;;;1.97;;
46729;SDS011;32476;50.002;11.854;2023-11-19T12:30:38;4.90;;;1.93;;
46729;SDS011;32476;50.002;11.854;2023-11-19T12:33:07;3.43;;;1.70;;
46729;SDS011;32476;50.002;11.854;2023-11-19T12:35:39;2.90;;;1.63;;
46729;SDS011;32476;50.002;11.854;2023-11-19T12:38:05;5.80;;;2.10;;
46729;SDS011;32476;50.002;11.854;2023-11-19T12:40:31;5.40;;;1.97;;
46729;SDS011;32476;50.002;11.854;2023-11-19T12:42:59;4.77;;;2.13;;
46729;SDS011;32476;50.002;11.854;2023-11-19T12:45:34;5.47;;;2.30;;
46729;SDS011;32476;50.002;11.854;2023-11-19T12:48:05;7.73;;;2.10;;
46729;SDS011;32476;50.002;11.854;2023-11-19T12:53:23;5.30;;;2.07;;
46729;SDS011;32476;50.002;11.854;2023-11-19T12:55:50;9.53;;;2.83;;
46729;SDS011;32476;50.002;11.854;2023-11-19T12:58:29;6.47;;;1.83;;
46729;SDS011;32476;50.002;11.854;2023-11-19T13:01:05;5.90;;;2.17;;
46729;SDS011;32476;50.002;11.854;2023-11-19T13:03:32;4.53;;;1.80;;
46729;SDS011;32476;50.002;11.854;2023-11-19T13:06:01;5.67;;;1.40;;
46729;SDS011;32476;50.002;11.854;2023-11-19T13:08:35;11.43;;;2.63;;
46729;SDS011;32476;50.002;11.854;2023-11-19T13:11:12;7.13;;;2.17;;
46729;SDS011;32476;50.002;11.854;2023-11-19T13:13:57;8.20;;;1.90;;
46729;SDS011;32476;50.002;11.854;2023-11-19T13:16:27;8.80;;;2.07;;
46729;SDS011;32476;50.002;11.854;2023-11-19T13:18:53;3.90;;;1.80;;
46729;SDS011;32476;50.002;11.854;2023-11-19T13:21:20;6.60;;;1.77;;
46729;SDS011;32476;50.002;11.854;2023-11-19T13:23:47;8.07;;;2.13;;
46729;SDS011;32476;50.002;11.854;2023-11-19T13:26:13;7.70;;;2.20;;
46729;SDS011;32476;50.002;11.854;2023-11-19T13:28:39;8.33;;;2.30;;
46729;SDS011;32476;50.002;11.854;2023-11-19T13:31:06;8.13;;;2.00;;
46729;SDS011;32476;50.002;11.854;2023-11-19T13:33:32;6.60;;;2.00;;
46729;SDS011;32476;50.002;11.854;2023-11-19T13:35:59;6.20;;;1.83;;
46729;SDS011;32476;50.002;11.854;2023-11-19T13:38:32;8.30;;;2.03;;
46729;SDS011;32476;50.002;11.854;2023-11-19T13:40:59;7.10;;;2.27;;
46729;SDS011;32476;50.002;11.854;2023-11-19T13:43:25;8.13;;;2.50;;
46729;SDS011;32476;50.002;11.854;2023-11-19T13:45:54;8.60;;;2.27;;
46729;SDS011;32476;50.002;11.854;2023-11-19T13:48:21;8.77;;;2.33;;
46729;SDS011;32476;50.002;11.854;2023-11-19T13:50:47;7.70;;;3.10;;
46729;SDS011;32476;50.002;11.854;2023-11-19T13:53:14;11.63;;;3.30;;
46729;SDS011;32476;50.002;11.854;2023-11-19T13:55:41;7.33;;;3.30;;
46729;SDS011;32476;50.002;11.854;2023-11-19T13:58:07;6.40;;;1.93;;
46729;SDS011;32476;50.002;11.854;2023-11-19T14:00:35;12.50;;;2.43;;
46729;SDS011;32476;50.002;11.854;2023-11-19T14:03:00;9.20;;;2.23;;
46729;SDS011;32476;50.002;11.854;2023-11-19T14:05:26;6.90;;;2.27;;
46729;SDS011;32476;50.002;11.854;2023-11-19T14:07:53;8.40;;;2.67;;
46729;SDS011;32476;50.002;11.854;2023-11-19T14:10:22;9.60;;;3.03;;
46729;SDS011;32476;50.002;11.854;2023-11-19T14:12:48;7.23;;;2.43;;
46729;SDS011;32476;50.002;11.854;2023-11-19T14:15:16;9.93;;;2.40;;
46729;SDS011;32476;50.002;11.854;2023-11-19T14:17:43;12.87;;;2.80;;
46729;SDS011;32476;50.002;11.854;2023-11-19T14:20:09;10.30;;;2.60;;
46729;SDS011;32476;50.002;11.854;2023-11-19T14:22:40;13.60;;;2.00;;
46729;SDS011;32476;50.002;11.854;2023-11-19T14:25:06;7.37;;;2.20;;
46729;SDS011;32476;50.002;11.854;2023-11-19T14:27:38;9.73;;;2.47;;
46729;SDS011;32476;50.002;11.854;2023-11-19T14:30:08;7.47;;;2.60;;
46729;SDS011;32476;50.002;11.854;2023-11-19T14:32:36;7.80;;;2.50;;
46729;SDS011;32476;50.002;11.854;2023-11-19T14:35:05;9.33;;;2.47;;
46729;SDS011;32476;50.002;11.854;2023-11-19T14:37:33;9.70;;;2.70;;
46729;SDS011;32476;50.002;11.854;2023-11-19T14:39:59;8.13;;;2.80;;
46729;SDS011;32476;50.002;11.854;2023-11-19T14:42:27;8.53;;;2.13;;
46729;SDS011;32476;50.002;11.854;2023-11-19T14:44:54;8.53;;;3.57;;
46729;SDS011;32476;50.002;11.854;2023-11-19T14:47:20;8.53;;;2.40;;
46729;SDS011;32476;50.002;11.854;2023-11-19T14:49:47;9.77;;;2.43;;